sensor_id;sensor_type;location;lat;lon;timestamp;P1;durP1;ratioP1;P2;durP2;ratioP2
13997;SDS011;7074;51.508;7.018;2023-02-03T00:00:26;16.60;;;14.63;;
13997;SDS011;7074;51.508;7.018;2023-02-03T00:02:54;23.13;;;18.70;;
13997;SDS011;7074;51.508;7.018;2023-02-03T00:05:22;17.90;;;14.60;;
13997;SDS011;7074;51.508;7.018;2023-02-03T00:07:51;20.00;;;17.37;;
13997;SDS011;7074;51.508;7.018;2023-02-03T00:10:18;22.53;;;17.97;;
13997;SDS011;7074;51.508;7.018;2023-02-03T00:12:46;20.23;;;16.13;;
13997;SDS011;7074;51.508;7.018;2023-02-03T00:15:14;19.97;;;16.63;;
13997;SDS011;7074;51.508;7.018;2023-02-03T00:17:42;23.03;;;18.03;;
13997;SDS011;7074;51.508;7.018;2023-02-03T00:20:09;19.67;;;15.83;;
13997;SDS011;7074;51.508;7.018;2023-02-03T00:22:37;20.77;;;15.37;;
13997;SDS011;7074;51.508;7.018;2023-02-03T00:25:06;22.07;;;15.07;;
13997;SDS011;7074;51.508;7.018;2023-02-03T00:27:33;13.30;;;11.83;;
13997;SDS011;7074;51.508;7.018;2023-02-03T00:30:01;21.63;;;15.70;;
13997;SDS011;7074;51.508;7.018;2023-02-03T00:32:28;20.77;;;16.03;;
13997;SDS011;7074;51.508;7.018;2023-02-03T00:34:55;18.70;;;16.50;;
13997;SDS011;7074;51.508;7.018;2023-02-03T00:37:23;17.27;;;15.03;;
13997;SDS011;7074;51.508;7.018;2023-02-03T00:39:55;18.87;;;14.50;;
13997;SDS011;7074;51.508;7.018;2023-02-03T00:42:24;17.77;;;15.30;;
13997;SDS011;7074;51.508;7.018;2023-02-03T00:44:51;19.87;;;15.67;;
13997;SDS011;7074;51.508;7.018;2023-02-03T00:47:18;15.87;;;12.53;;
13997;SDS011;7074;51.508;7.018;2023-02-03T00:49:45;19.47;;;15.27;;
13997;SDS011;7074;51.508;7.018;2023-02-03T00:52:15;18.50;;;16.13;;
13997;SDS011;7074;51.508;7.018;2023-02-03T00:54:42;21.43;;;16.67;;
13997;SDS011;7074;51.508;7.018;2023-02-03T00:57:09;19.67;;;15.43;;
13997;SDS011;7074;51.508;7.018;2023-02-03T00:59:39;18.97;;;14.03;;
13997;SDS011;7074;51.508;7.018;2023-02-03T01:02:07;18.97;;;12.77;;
13997;SDS011;7074;51.508;7.018;2023-02-03T01:04:34;20.70;;;15.37;;
13997;SDS011;7074;51.508;7.018;2023-02-03T01:07:02;18.40;;;15.83;;
13997;SDS011;7074;51.508;7.018;2023-02-03T01:09:32;20.13;;;17.77;;
13997;SDS011;7074;51.508;7.018;2023-02-03T01:11:59;20.47;;;15.03;;
13997;SDS011;7074;51.508;7.018;2023-02-03T01:14:27;16.07;;;13.57;;
13997;SDS011;7074;51.508;7.018;2023-02-03T01:16:56;16.83;;;11.90;;
13997;SDS011;7074;51.508;7.018;2023-02-03T01:19:23;22.07;;;15.40;;
13997;SDS011;7074;51.508;7.018;2023-02-03T01:21:51;22.73;;;16.20;;
13997;SDS011;7074;51.508;7.018;2023-02-03T01:24:18;18.13;;;14.10;;
13997;SDS011;7074;51.508;7.018;2023-02-03T01:26:45;21.67;;;17.33;;
13997;SDS011;7074;51.508;7.018;2023-02-03T01:29:13;13.30;;;10.27;;
13997;SDS011;7074;51.508;7.018;2023-02-03T01:31:40;20.63;;;14.53;;
13997;SDS011;7074;51.508;7.018;2023-02-03T01:34:10;17.50;;;14.37;;
13997;SDS011;7074;51.508;7.018;2023-02-03T01:36:41;16.37;;;12.13;;
13997;SDS011;7074;51.508;7.018;2023-02-03T01:39:11;18.30;;;15.57;;
13997;SDS011;7074;51.508;7.018;2023-02-03T01:41:39;19.10;;;15.17;;
13997;SDS011;7074;51.508;7.018;2023-02-03T01:47:04;22.60;;;15.20;;
13997;SDS011;7074;51.508;7.018;2023-02-03T01:49:39;20.30;;;15.97;;
13997;SDS011;7074;51.508;7.018;2023-02-03T01:52:10;23.37;;;16.23;;
13997;SDS011;7074;51.508;7.018;2023-02-03T01:54:38;16.77;;;14.80;;
13997;SDS011;7074;51.508;7.018;2023-02-03T01:57:12;17.23;;;13.87;;
13997;SDS011;7074;51.508;7.018;2023-02-03T01:59:42;15.50;;;12.63;;
13997;SDS011;7074;51.508;7.018;2023-02-03T02:02:10;24.20;;;13.93;;
13997;SDS011;7074;51.508;7.018;2023-02-03T02:04:42;14.70;;;12.00;;
13997;SDS011;7074;51.508;7.018;2023-02-03T02:07:17;12.17;;;10.43;;
13997;SDS011;7074;51.508;7.018;2023-02-03T02:09:44;19.47;;;15.23;;
13997;SDS011;7074;51.508;7.018;2023-02-03T02:12:13;18.23;;;15.27;;
13997;SDS011;7074;51.508;7.018;2023-02-03T02:14:40;15.63;;;12.77;;
13997;SDS011;7074;51.508;7.018;2023-02-03T02:17:11;17.30;;;14.47;;
13997;SDS011;7074;51.508;7.018;2023-02-03T02:19:56;17.43;;;12.93;;
13997;SDS011;7074;51.508;7.018;2023-02-03T02:22:50;19.17;;;15.23;;
13997;SDS011;7074;51.508;7.018;2023-02-03T02:25:41;20.20;;;14.93;;
13997;SDS011;7074;51.508;7.018;2023-02-03T02:31:33;17.90;;;14.20;;
13997;SDS011;7074;51.508;7.018;2023-02-03T02:34:11;18.37;;;13.93;;
13997;SDS011;7074;51.508;7.018;2023-02-03T02:36:49;18.03;;;13.70;;
13997;SDS011;7074;51.508;7.018;2023-02-03T02:39:28;17.87;;;14.87;;
13997;SDS011;7074;51.508;7.018;2023-02-03T02:42:03;17.57;;;14.17;;
13997;SDS011;7074;51.508;7.018;2023-02-03T02:44:34;15.20;;;12.90;;
13997;SDS011;7074;51.508;7.018;2023-02-03T02:47:09;10.47;;;9.40;;
13997;SDS011;7074;51.508;7.018;2023-02-03T02:49:44;17.60;;;13.43;;
13997;SDS011;7074;51.508;7.018;2023-02-03T02:52:17;17.50;;;11.57;;
13997;SDS011;7074;51.508;7.018;2023-02-03T02:54:48;17.90;;;11.57;;
13997;SDS011;7074;51.508;7.018;2023-02-03T02:57:21;15.83;;;11.67;;
13997;SDS011;7074;51.508;7.018;2023-02-03T02:59:52;14.43;;;11.20;;
13997;SDS011;7074;51.508;7.018;2023-02-03T03:02:21;17.47;;;11.87;;
13997;SDS011;7074;51.508;7.018;2023-02-03T03:04:52;15.37;;;11.07;;
13997;SDS011;7074;51.508;7.018;2023-02-03T03:07:21;19.63;;;12.80;;
13997;SDS011;7074;51.508;7.018;2023-02-03T03:09:53;16.30;;;11.60;;
13997;SDS011;7074;51.508;7.018;2023-02-03T03:12:25;11.63;;;8.27;;
13997;SDS011;7074;51.508;7.018;2023-02-03T03:14:58;17.30;;;10.20;;
13997;SDS011;7074;51.508;7.018;2023-02-03T03:17:31;17.33;;;11.37;;
13997;SDS011;7074;51.508;7.018;2023-02-03T03:20:02;13.47;;;10.17;;
13997;SDS011;7074;51.508;7.018;2023-02-03T03:22:35;13.17;;;9.23;;
13997;SDS011;7074;51.508;7.018;2023-02-03T03:25:08;14.17;;;9.07;;
13997;SDS011;7074;51.508;7.018;2023-02-03T03:27:41;9.23;;;6.57;;
13997;SDS011;7074;51.508;7.018;2023-02-03T03:30:13;11.03;;;8.47;;
13997;SDS011;7074;51.508;7.018;2023-02-03T03:32:45;11.07;;;7.73;;
13997;SDS011;7074;51.508;7.018;2023-02-03T03:35:12;12.93;;;8.90;;
13997;SDS011;7074;51.508;7.018;2023-02-03T03:37:40;11.03;;;9.37;;
13997;SDS011;7074;51.508;7.018;2023-02-03T03:40:11;16.00;;;10.03;;
13997;SDS011;7074;51.508;7.018;2023-02-03T03:42:49;11.20;;;7.53;;
13997;SDS011;7074;51.508;7.018;2023-02-03T03:45:20;14.87;;;8.13;;
13997;SDS011;7074;51.508;7.018;2023-02-03T03:47:52;9.17;;;7.37;;
13997;SDS011;7074;51.508;7.018;2023-02-03T03:50:24;11.50;;;9.20;;
13997;SDS011;7074;51.508;7.018;2023-02-03T03:52:54;9.63;;;8.00;;
13997;SDS011;7074;51.508;7.018;2023-02-03T03:55:26;8.90;;;6.83;;
13997;SDS011;7074;51.508;7.018;2023-02-03T03:57:57;8.10;;;6.37;;
13997;SDS011;7074;51.508;7.018;2023-02-03T04:00:27;10.90;;;7.70;;
13997;SDS011;7074;51.508;7.018;2023-02-03T04:03:00;9.50;;;6.90;;
13997;SDS011;7074;51.508;7.018;2023-02-03T04:05:31;9.23;;;6.53;;
13997;SDS011;7074;51.508;7.018;2023-02-03T04:07:59;8.97;;;6.00;;
13997;SDS011;7074;51.508;7.018;2023-02-03T04:10:30;9.27;;;6.50;;
13997;SDS011;7074;51.508;7.018;2023-02-03T04:12:59;10.60;;;7.70;;
13997;SDS011;7074;51.508;7.018;2023-02-03T04:15:26;9.03;;;7.30;;
13997;SDS011;7074;51.508;7.018;2023-02-03T04:17:54;11.13;;;7.17;;
13997;SDS011;7074;51.508;7.018;2023-02-03T04:20:23;9.07;;;5.07;;
13997;SDS011;7074;51.508;7.018;2023-02-03T04:22:50;9.77;;;6.43;;
13997;SDS011;7074;51.508;7.018;2023-02-03T04:25:18;9.57;;;6.43;;
13997;SDS011;7074;51.508;7.018;2023-02-03T04:27:45;9.20;;;6.60;;
13997;SDS011;7074;51.508;7.018;2023-02-03T04:30:13;11.00;;;6.73;;
13997;SDS011;7074;51.508;7.018;2023-02-03T04:32:42;10.30;;;6.97;;
13997;SDS011;7074;51.508;7.018;2023-02-03T04:35:10;9.23;;;6.00;;
13997;SDS011;7074;51.508;7.018;2023-02-03T04:37:39;11.43;;;6.57;;
13997;SDS011;7074;51.508;7.018;2023-02-03T04:40:07;8.43;;;6.30;;
13997;SDS011;7074;51.508;7.018;2023-02-03T04:42:36;8.27;;;6.03;;
13997;SDS011;7074;51.508;7.018;2023-02-03T04:45:03;11.10;;;5.20;;
13997;SDS011;7074;51.508;7.018;2023-02-03T04:47:32;7.30;;;5.53;;
13997;SDS011;7074;51.508;7.018;2023-02-03T04:49:59;12.80;;;5.57;;
13997;SDS011;7074;51.508;7.018;2023-02-03T04:52:26;8.97;;;5.00;;
13997;SDS011;7074;51.508;7.018;2023-02-03T04:54:55;7.93;;;6.40;;
13997;SDS011;7074;51.508;7.018;2023-02-03T04:57:23;15.73;;;6.53;;
13997;SDS011;7074;51.508;7.018;2023-02-03T04:59:50;8.07;;;5.37;;
13997;SDS011;7074;51.508;7.018;2023-02-03T05:02:17;9.13;;;6.00;;
13997;SDS011;7074;51.508;7.018;2023-02-03T05:04:45;9.03;;;6.43;;
13997;SDS011;7074;51.508;7.018;2023-02-03T05:07:12;9.77;;;6.80;;
13997;SDS011;7074;51.508;7.018;2023-02-03T05:09:39;8.03;;;5.90;;
13997;SDS011;7074;51.508;7.018;2023-02-03T05:12:08;9.40;;;6.23;;
13997;SDS011;7074;51.508;7.018;2023-02-03T05:14:35;7.73;;;5.73;;
13997;SDS011;7074;51.508;7.018;2023-02-03T05:17:02;11.20;;;6.93;;
13997;SDS011;7074;51.508;7.018;2023-02-03T05:19:30;8.03;;;6.53;;
13997;SDS011;7074;51.508;7.018;2023-02-03T05:21:57;7.20;;;5.83;;
13997;SDS011;7074;51.508;7.018;2023-02-03T05:24:24;8.83;;;5.10;;
13997;SDS011;7074;51.508;7.018;2023-02-03T05:26:51;5.17;;;4.03;;
13997;SDS011;7074;51.508;7.018;2023-02-03T05:29:20;9.53;;;6.10;;
13997;SDS011;7074;51.508;7.018;2023-02-03T05:31:47;10.37;;;6.17;;
13997;SDS011;7074;51.508;7.018;2023-02-03T05:34:14;9.37;;;5.90;;
13997;SDS011;7074;51.508;7.018;2023-02-03T05:36:42;6.73;;;4.83;;
13997;SDS011;7074;51.508;7.018;2023-02-03T05:39:09;8.77;;;5.40;;
13997;SDS011;7074;51.508;7.018;2023-02-03T05:41:36;11.83;;;5.70;;
13997;SDS011;7074;51.508;7.018;2023-02-03T05:44:18;5.93;;;5.10;;
13997;SDS011;7074;51.508;7.018;2023-02-03T05:46:47;7.53;;;4.80;;
13997;SDS011;7074;51.508;7.018;2023-02-03T05:49:15;8.40;;;5.03;;
13997;SDS011;7074;51.508;7.018;2023-02-03T05:51:43;8.37;;;4.87;;
13997;SDS011;7074;51.508;7.018;2023-02-03T05:54:11;11.50;;;5.90;;
13997;SDS011;7074;51.508;7.018;2023-02-03T05:56:38;8.10;;;4.23;;
13997;SDS011;7074;51.508;7.018;2023-02-03T05:59:06;9.60;;;4.90;;
13997;SDS011;7074;51.508;7.018;2023-02-03T06:01:33;7.50;;;5.07;;
13997;SDS011;7074;51.508;7.018;2023-02-03T06:04:03;6.40;;;3.97;;
13997;SDS011;7074;51.508;7.018;2023-02-03T06:06:35;10.10;;;5.33;;
13997;SDS011;7074;51.508;7.018;2023-02-03T06:09:03;9.97;;;4.77;;
13997;SDS011;7074;51.508;7.018;2023-02-03T06:11:32;7.97;;;4.00;;
13997;SDS011;7074;51.508;7.018;2023-02-03T06:14:01;7.73;;;4.27;;
13997;SDS011;7074;51.508;7.018;2023-02-03T06:16:29;7.07;;;4.10;;
13997;SDS011;7074;51.508;7.018;2023-02-03T06:18:56;7.67;;;4.77;;
13997;SDS011;7074;51.508;7.018;2023-02-03T06:21:26;9.20;;;4.40;;
13997;SDS011;7074;51.508;7.018;2023-02-03T06:23:54;11.30;;;5.13;;
13997;SDS011;7074;51.508;7.018;2023-02-03T06:26:21;6.97;;;4.37;;
13997;SDS011;7074;51.508;7.018;2023-02-03T06:28:49;6.93;;;4.70;;
13997;SDS011;7074;51.508;7.018;2023-02-03T06:31:16;12.93;;;5.17;;
13997;SDS011;7074;51.508;7.018;2023-02-03T06:33:43;11.77;;;5.03;;
13997;SDS011;7074;51.508;7.018;2023-02-03T06:36:11;12.00;;;4.67;;
13997;SDS011;7074;51.508;7.018;2023-02-03T06:38:39;10.80;;;4.73;;
13997;SDS011;7074;51.508;7.018;2023-02-03T06:41:06;10.03;;;4.77;;
13997;SDS011;7074;51.508;7.018;2023-02-03T06:43:34;8.33;;;4.37;;
13997;SDS011;7074;51.508;7.018;2023-02-03T06:46:01;9.83;;;5.07;;
13997;SDS011;7074;51.508;7.018;2023-02-03T06:48:28;6.87;;;3.87;;
13997;SDS011;7074;51.508;7.018;2023-02-03T06:50:59;6.07;;;4.27;;
13997;SDS011;7074;51.508;7.018;2023-02-03T06:53:26;9.70;;;5.40;;
13997;SDS011;7074;51.508;7.018;2023-02-03T06:55:55;8.43;;;5.47;;
13997;SDS011;7074;51.508;7.018;2023-02-03T06:58:23;9.70;;;4.33;;
13997;SDS011;7074;51.508;7.018;2023-02-03T07:00:50;9.73;;;5.23;;
13997;SDS011;7074;51.508;7.018;2023-02-03T07:03:20;7.53;;;4.00;;
13997;SDS011;7074;51.508;7.018;2023-02-03T07:05:48;10.60;;;4.73;;
13997;SDS011;7074;51.508;7.018;2023-02-03T07:08:15;8.67;;;4.70;;
13997;SDS011;7074;51.508;7.018;2023-02-03T07:10:42;8.77;;;4.60;;
13997;SDS011;7074;51.508;7.018;2023-02-03T07:13:11;8.57;;;4.27;;
13997;SDS011;7074;51.508;7.018;2023-02-03T07:15:38;6.10;;;3.83;;
13997;SDS011;7074;51.508;7.018;2023-02-03T07:18:05;8.90;;;4.60;;
13997;SDS011;7074;51.508;7.018;2023-02-03T07:20:33;7.13;;;4.87;;
13997;SDS011;7074;51.508;7.018;2023-02-03T07:23:00;5.33;;;4.53;;
13997;SDS011;7074;51.508;7.018;2023-02-03T07:25:29;10.30;;;4.80;;
13997;SDS011;7074;51.508;7.018;2023-02-03T07:27:59;8.00;;;5.03;;
13997;SDS011;7074;51.508;7.018;2023-02-03T07:30:28;6.97;;;5.27;;
13997;SDS011;7074;51.508;7.018;2023-02-03T07:33:08;7.20;;;4.63;;
13997;SDS011;7074;51.508;7.018;2023-02-03T07:35:35;9.57;;;5.03;;
13997;SDS011;7074;51.508;7.018;2023-02-03T07:38:03;6.97;;;4.50;;
13997;SDS011;7074;51.508;7.018;2023-02-03T07:40:30;7.03;;;4.13;;
13997;SDS011;7074;51.508;7.018;2023-02-03T07:43:02;8.40;;;4.60;;
13997;SDS011;7074;51.508;7.018;2023-02-03T07:45:31;3.97;;;3.60;;
13997;SDS011;7074;51.508;7.018;2023-02-03T07:48:18;7.10;;;4.80;;
13997;SDS011;7074;51.508;7.018;2023-02-03T07:50:49;8.70;;;4.63;;
13997;SDS011;7074;51.508;7.018;2023-02-03T07:53:19;5.27;;;4.27;;
13997;SDS011;7074;51.508;7.018;2023-02-03T07:55:46;6.67;;;4.50;;
13997;SDS011;7074;51.508;7.018;2023-02-03T07:58:13;7.67;;;4.57;;
13997;SDS011;7074;51.508;7.018;2023-02-03T08:00:42;6.90;;;4.80;;
13997;SDS011;7074;51.508;7.018;2023-02-03T08:03:09;10.93;;;5.60;;
13997;SDS011;7074;51.508;7.018;2023-02-03T08:05:37;6.87;;;4.63;;
13997;SDS011;7074;51.508;7.018;2023-02-03T08:08:04;5.90;;;4.70;;
13997;SDS011;7074;51.508;7.018;2023-02-03T08:10:32;7.33;;;4.20;;
13997;SDS011;7074;51.508;7.018;2023-02-03T08:13:15;5.80;;;3.33;;
13997;SDS011;7074;51.508;7.018;2023-02-03T08:22:37;11.40;;;4.30;;
13997;SDS011;7074;51.508;7.018;2023-02-03T08:25:28;6.63;;;4.20;;
13997;SDS011;7074;51.508;7.018;2023-02-03T08:31:20;9.90;;;4.97;;
13997;SDS011;7074;51.508;7.018;2023-02-03T08:34:00;3.97;;;3.57;;
13997;SDS011;7074;51.508;7.018;2023-02-03T08:37:21;8.13;;;4.70;;
13997;SDS011;7074;51.508;7.018;2023-02-03T08:43:25;10.03;;;5.00;;
13997;SDS011;7074;51.508;7.018;2023-02-03T08:46:52;8.30;;;5.43;;
13997;SDS011;7074;51.508;7.018;2023-02-03T08:50:05;5.40;;;3.90;;
13997;SDS011;7074;51.508;7.018;2023-02-03T09:20:36;9.17;;;4.53;;
13997;SDS011;7074;51.508;7.018;2023-02-03T09:23:03;10.33;;;5.27;;
13997;SDS011;7074;51.508;7.018;2023-02-03T09:25:31;6.87;;;4.67;;
13997;SDS011;7074;51.508;7.018;2023-02-03T09:28:00;7.87;;;4.77;;
13997;SDS011;7074;51.508;7.018;2023-02-03T09:30:27;4.47;;;3.47;;
13997;SDS011;7074;51.508;7.018;2023-02-03T09:32:54;11.53;;;5.70;;
13997;SDS011;7074;51.508;7.018;2023-02-03T09:35:23;9.93;;;5.20;;
13997;SDS011;7074;51.508;7.018;2023-02-03T09:37:53;8.27;;;4.37;;
13997;SDS011;7074;51.508;7.018;2023-02-03T09:40:21;7.00;;;4.77;;
13997;SDS011;7074;51.508;7.018;2023-02-03T09:43:04;9.93;;;4.93;;
13997;SDS011;7074;51.508;7.018;2023-02-03T09:45:40;7.40;;;4.90;;
13997;SDS011;7074;51.508;7.018;2023-02-03T09:48:09;9.40;;;5.83;;
13997;SDS011;7074;51.508;7.018;2023-02-03T09:50:40;6.57;;;4.27;;
13997;SDS011;7074;51.508;7.018;2023-02-03T09:53:22;7.07;;;5.60;;
13997;SDS011;7074;51.508;7.018;2023-02-03T09:55:54;9.23;;;5.17;;
13997;SDS011;7074;51.508;7.018;2023-02-03T09:58:23;11.60;;;5.13;;
13997;SDS011;7074;51.508;7.018;2023-02-03T10:00:58;10.13;;;6.30;;
13997;SDS011;7074;51.508;7.018;2023-02-03T10:03:31;8.23;;;4.63;;
13997;SDS011;7074;51.508;7.018;2023-02-03T10:06:08;10.43;;;5.73;;
13997;SDS011;7074;51.508;7.018;2023-02-03T10:08:51;11.77;;;5.90;;
13997;SDS011;7074;51.508;7.018;2023-02-03T10:11:52;9.00;;;6.00;;
13997;SDS011;7074;51.508;7.018;2023-02-03T10:14:33;6.90;;;4.40;;
13997;SDS011;7074;51.508;7.018;2023-02-03T10:17:15;11.17;;;6.30;;
13997;SDS011;7074;51.508;7.018;2023-02-03T10:19:54;7.53;;;5.03;;
13997;SDS011;7074;51.508;7.018;2023-02-03T10:22:26;10.57;;;5.53;;
13997;SDS011;7074;51.508;7.018;2023-02-03T10:25:00;12.30;;;6.03;;
13997;SDS011;7074;51.508;7.018;2023-02-03T10:27:31;9.60;;;5.27;;
13997;SDS011;7074;51.508;7.018;2023-02-03T10:30:02;9.53;;;5.20;;
13997;SDS011;7074;51.508;7.018;2023-02-03T10:32:32;5.40;;;4.40;;
13997;SDS011;7074;51.508;7.018;2023-02-03T10:35:00;8.27;;;5.20;;
13997;SDS011;7074;51.508;7.018;2023-02-03T10:37:29;8.87;;;5.00;;
13997;SDS011;7074;51.508;7.018;2023-02-03T10:40:00;8.13;;;4.77;;
13997;SDS011;7074;51.508;7.018;2023-02-03T10:42:28;13.17;;;5.67;;
13997;SDS011;7074;51.508;7.018;2023-02-03T10:45:17;13.07;;;5.90;;
13997;SDS011;7074;51.508;7.018;2023-02-03T10:47:46;6.90;;;4.67;;
13997;SDS011;7074;51.508;7.018;2023-02-03T10:50:16;10.13;;;4.90;;
13997;SDS011;7074;51.508;7.018;2023-02-03T10:52:45;10.77;;;4.67;;
13997;SDS011;7074;51.508;7.018;2023-02-03T10:55:30;6.10;;;4.60;;
13997;SDS011;7074;51.508;7.018;2023-02-03T10:57:57;7.37;;;4.40;;
13997;SDS011;7074;51.508;7.018;2023-02-03T11:00:37;8.80;;;4.60;;
13997;SDS011;7074;51.508;7.018;2023-02-03T11:03:06;7.43;;;5.13;;
13997;SDS011;7074;51.508;7.018;2023-02-03T11:05:41;9.13;;;5.00;;
13997;SDS011;7074;51.508;7.018;2023-02-03T11:08:12;8.67;;;4.80;;
13997;SDS011;7074;51.508;7.018;2023-02-03T11:10:44;9.33;;;5.30;;
13997;SDS011;7074;51.508;7.018;2023-02-03T11:13:16;11.07;;;5.40;;
13997;SDS011;7074;51.508;7.018;2023-02-03T11:15:51;9.63;;;5.70;;
13997;SDS011;7074;51.508;7.018;2023-02-03T11:18:35;9.43;;;4.60;;
13997;SDS011;7074;51.508;7.018;2023-02-03T11:21:21;9.93;;;4.07;;
13997;SDS011;7074;51.508;7.018;2023-02-03T11:23:52;7.03;;;4.27;;
13997;SDS011;7074;51.508;7.018;2023-02-03T11:26:24;7.87;;;5.57;;
13997;SDS011;7074;51.508;7.018;2023-02-03T11:28:57;7.13;;;4.83;;
13997;SDS011;7074;51.508;7.018;2023-02-03T11:31:26;9.13;;;5.33;;
13997;SDS011;7074;51.508;7.018;2023-02-03T11:33:59;12.17;;;5.10;;
13997;SDS011;7074;51.508;7.018;2023-02-03T11:36:29;9.13;;;5.80;;
13997;SDS011;7074;51.508;7.018;2023-02-03T11:39:16;12.13;;;5.00;;
13997;SDS011;7074;51.508;7.018;2023-02-03T11:41:50;10.20;;;5.30;;
13997;SDS011;7074;51.508;7.018;2023-02-03T11:44:19;7.53;;;5.77;;
13997;SDS011;7074;51.508;7.018;2023-02-03T11:46:49;13.30;;;7.00;;
13997;SDS011;7074;51.508;7.018;2023-02-03T11:52:32;9.10;;;5.97;;
13997;SDS011;7074;51.508;7.018;2023-02-03T11:55:08;8.77;;;5.60;;
13997;SDS011;7074;51.508;7.018;2023-02-03T11:57:49;8.57;;;4.90;;
13997;SDS011;7074;51.508;7.018;2023-02-03T12:00:29;10.13;;;5.07;;
13997;SDS011;7074;51.508;7.018;2023-02-03T12:03:17;7.57;;;4.00;;
13997;SDS011;7074;51.508;7.018;2023-02-03T12:07:54;11.30;;;7.97;;
13997;SDS011;7074;51.508;7.018;2023-02-03T12:10:27;6.87;;;4.30;;
13997;SDS011;7074;51.508;7.018;2023-02-03T12:13:09;6.53;;;4.00;;
13997;SDS011;7074;51.508;7.018;2023-02-03T12:15:54;10.73;;;4.83;;
13997;SDS011;7074;51.508;7.018;2023-02-03T12:18:42;5.50;;;3.90;;
13997;SDS011;7074;51.508;7.018;2023-02-03T12:21:25;7.90;;;4.27;;
13997;SDS011;7074;51.508;7.018;2023-02-03T12:24:11;6.63;;;4.57;;
13997;SDS011;7074;51.508;7.018;2023-02-03T12:26:49;6.90;;;3.73;;
13997;SDS011;7074;51.508;7.018;2023-02-03T12:29:24;5.60;;;3.73;;
13997;SDS011;7074;51.508;7.018;2023-02-03T12:31:59;5.90;;;4.03;;
13997;SDS011;7074;51.508;7.018;2023-02-03T12:34:31;5.73;;;4.00;;
13997;SDS011;7074;51.508;7.018;2023-02-03T12:37:03;7.40;;;4.80;;
13997;SDS011;7074;51.508;7.018;2023-02-03T12:39:35;7.97;;;5.33;;
13997;SDS011;7074;51.508;7.018;2023-02-03T12:42:11;5.70;;;4.30;;
13997;SDS011;7074;51.508;7.018;2023-02-03T12:44:46;9.90;;;5.00;;
13997;SDS011;7074;51.508;7.018;2023-02-03T12:47:20;10.33;;;4.17;;
13997;SDS011;7074;51.508;7.018;2023-02-03T12:49:52;10.40;;;4.73;;
13997;SDS011;7074;51.508;7.018;2023-02-03T12:52:24;10.53;;;5.00;;
13997;SDS011;7074;51.508;7.018;2023-02-03T12:54:58;5.23;;;4.20;;
13997;SDS011;7074;51.508;7.018;2023-02-03T12:57:35;5.20;;;3.80;;
13997;SDS011;7074;51.508;7.018;2023-02-03T13:00:29;6.50;;;3.97;;
13997;SDS011;7074;51.508;7.018;2023-02-03T13:03:08;7.90;;;4.77;;
13997;SDS011;7074;51.508;7.018;2023-02-03T13:05:41;8.53;;;5.00;;
13997;SDS011;7074;51.508;7.018;2023-02-03T13:08:16;9.27;;;4.13;;
13997;SDS011;7074;51.508;7.018;2023-02-03T13:10:49;7.33;;;4.17;;
13997;SDS011;7074;51.508;7.018;2023-02-03T13:13:23;8.43;;;3.83;;
13997;SDS011;7074;51.508;7.018;2023-02-03T13:16:00;7.30;;;3.80;;
13997;SDS011;7074;51.508;7.018;2023-02-03T13:18:33;7.73;;;4.80;;
13997;SDS011;7074;51.508;7.018;2023-02-03T13:21:02;6.10;;;3.60;;
13997;SDS011;7074;51.508;7.018;2023-02-03T13:23:30;7.80;;;5.03;;
13997;SDS011;7074;51.508;7.018;2023-02-03T13:26:06;7.57;;;4.80;;
13997;SDS011;7074;51.508;7.018;2023-02-03T13:28:48;6.97;;;4.80;;
13997;SDS011;7074;51.508;7.018;2023-02-03T13:31:31;7.87;;;4.20;;
13997;SDS011;7074;51.508;7.018;2023-02-03T13:34:18;6.93;;;4.20;;
13997;SDS011;7074;51.508;7.018;2023-02-03T13:37:00;6.97;;;4.17;;
13997;SDS011;7074;51.508;7.018;2023-02-03T13:39:54;9.80;;;4.70;;
13997;SDS011;7074;51.508;7.018;2023-02-03T13:42:30;9.93;;;4.43;;
13997;SDS011;7074;51.508;7.018;2023-02-03T13:45:08;5.00;;;3.33;;
13997;SDS011;7074;51.508;7.018;2023-02-03T13:47:43;9.97;;;4.20;;
13997;SDS011;7074;51.508;7.018;2023-02-03T13:50:17;7.30;;;3.70;;
13997;SDS011;7074;51.508;7.018;2023-02-03T13:52:53;5.53;;;3.70;;
13997;SDS011;7074;51.508;7.018;2023-02-03T13:55:27;9.93;;;4.10;;
13997;SDS011;7074;51.508;7.018;2023-02-03T14:01:39;10.23;;;4.43;;
13997;SDS011;7074;51.508;7.018;2023-02-03T14:04:36;9.70;;;4.00;;
13997;SDS011;7074;51.508;7.018;2023-02-03T14:07:25;10.83;;;4.30;;
13997;SDS011;7074;51.508;7.018;2023-02-03T14:10:12;10.57;;;4.30;;
13997;SDS011;7074;51.508;7.018;2023-02-03T14:12:56;12.77;;;4.03;;
13997;SDS011;7074;51.508;7.018;2023-02-03T14:15:37;11.53;;;3.47;;
13997;SDS011;7074;51.508;7.018;2023-02-03T14:18:30;8.93;;;3.77;;
13997;SDS011;7074;51.508;7.018;2023-02-03T14:23:58;14.63;;;5.47;;
13997;SDS011;7074;51.508;7.018;2023-02-03T14:26:39;16.53;;;5.37;;
13997;SDS011;7074;51.508;7.018;2023-02-03T14:29:59;12.77;;;4.40;;
13997;SDS011;7074;51.508;7.018;2023-02-03T14:32:49;9.33;;;4.87;;
13997;SDS011;7074;51.508;7.018;2023-02-03T14:35:28;13.73;;;3.83;;
13997;SDS011;7074;51.508;7.018;2023-02-03T14:38:01;11.97;;;4.20;;
13997;SDS011;7074;51.508;7.018;2023-02-03T14:43:59;14.57;;;5.00;;
13997;SDS011;7074;51.508;7.018;2023-02-03T14:47:06;30.83;;;6.73;;
13997;SDS011;7074;51.508;7.018;2023-02-03T14:49:43;11.97;;;4.03;;
13997;SDS011;7074;51.508;7.018;2023-02-03T14:52:58;9.70;;;4.27;;
13997;SDS011;7074;51.508;7.018;2023-02-03T14:59:03;14.23;;;4.90;;
13997;SDS011;7074;51.508;7.018;2023-02-03T15:04:35;16.70;;;5.63;;
13997;SDS011;7074;51.508;7.018;2023-02-03T15:07:02;19.67;;;5.50;;
13997;SDS011;7074;51.508;7.018;2023-02-03T15:09:30;13.20;;;4.73;;
13997;SDS011;7074;51.508;7.018;2023-02-03T15:12:12;15.63;;;4.77;;
13997;SDS011;7074;51.508;7.018;2023-02-03T15:14:43;13.20;;;6.53;;
13997;SDS011;7074;51.508;7.018;2023-02-03T15:17:12;21.23;;;8.30;;
13997;SDS011;7074;51.508;7.018;2023-02-03T15:19:46;56.13;;;30.80;;
13997;SDS011;7074;51.508;7.018;2023-02-03T15:22:17;30.50;;;16.10;;
13997;SDS011;7074;51.508;7.018;2023-02-03T15:24:45;19.17;;;8.87;;
13997;SDS011;7074;51.508;7.018;2023-02-03T15:27:19;24.87;;;11.77;;
13997;SDS011;7074;51.508;7.018;2023-02-03T15:29:49;26.90;;;10.13;;
13997;SDS011;7074;51.508;7.018;2023-02-03T15:32:17;21.63;;;9.53;;
13997;SDS011;7074;51.508;7.018;2023-02-03T15:34:49;15.83;;;7.57;;
13997;SDS011;7074;51.508;7.018;2023-02-03T15:37:19;23.50;;;6.10;;
13997;SDS011;7074;51.508;7.018;2023-02-03T15:39:52;26.97;;;8.77;;
13997;SDS011;7074;51.508;7.018;2023-02-03T15:42:25;23.97;;;11.33;;
13997;SDS011;7074;51.508;7.018;2023-02-03T15:45:01;21.10;;;8.60;;
13997;SDS011;7074;51.508;7.018;2023-02-03T15:47:32;14.47;;;6.87;;
13997;SDS011;7074;51.508;7.018;2023-02-03T15:50:18;20.80;;;8.03;;
13997;SDS011;7074;51.508;7.018;2023-02-03T15:52:51;14.87;;;6.13;;
13997;SDS011;7074;51.508;7.018;2023-02-03T15:55:24;16.07;;;6.53;;
13997;SDS011;7074;51.508;7.018;2023-02-03T15:57:57;10.93;;;4.67;;
13997;SDS011;7074;51.508;7.018;2023-02-03T16:00:29;16.97;;;6.90;;
13997;SDS011;7074;51.508;7.018;2023-02-03T16:02:59;22.27;;;7.10;;
13997;SDS011;7074;51.508;7.018;2023-02-03T16:05:32;20.40;;;8.07;;
13997;SDS011;7074;51.508;7.018;2023-02-03T16:09:57;20.07;;;5.87;;
13997;SDS011;7074;51.508;7.018;2023-02-03T16:12:26;23.33;;;8.67;;
13997;SDS011;7074;51.508;7.018;2023-02-03T16:19:20;16.87;;;6.23;;
13997;SDS011;7074;51.508;7.018;2023-02-03T16:23:02;16.80;;;8.27;;
13997;SDS011;7074;51.508;7.018;2023-02-03T16:26:17;19.43;;;6.10;;
13997;SDS011;7074;51.508;7.018;2023-02-03T16:32:17;20.93;;;7.63;;
13997;SDS011;7074;51.508;7.018;2023-02-03T16:35:06;16.70;;;7.37;;
13997;SDS011;7074;51.508;7.018;2023-02-03T16:37:52;21.47;;;7.33;;
13997;SDS011;7074;51.508;7.018;2023-02-03T16:40:37;22.23;;;6.77;;
13997;SDS011;7074;51.508;7.018;2023-02-03T16:43:21;12.47;;;6.87;;
13997;SDS011;7074;51.508;7.018;2023-02-03T16:46:07;18.20;;;5.70;;